sensor_id;sensor_type;location;lat;lon;timestamp;temperature;humidity
33271;DHT22;53180;51.344;6.152;2022-08-20T00:01:31;20.70;88.70
33271;DHT22;53180;51.344;6.152;2022-08-20T00:04:00;20.70;89.10
33271;DHT22;53180;51.344;6.152;2022-08-20T00:06:28;20.70;89.30
33271;DHT22;53180;51.344;6.152;2022-08-20T00:08:56;20.60;89.40
33271;DHT22;53180;51.344;6.152;2022-08-20T00:11:26;20.60;89.40
33271;DHT22;53180;51.344;6.152;2022-08-20T00:13:57;20.60;89.30
33271;DHT22;53180;51.344;6.152;2022-08-20T00:16:33;20.60;89.50
33271;DHT22;53180;51.344;6.152;2022-08-20T00:19:04;20.50;89.70
33271;DHT22;53180;51.344;6.152;2022-08-20T00:21:34;20.50;89.60
33271;DHT22;53180;51.344;6.152;2022-08-20T00:24:04;20.50;89.60
33271;DHT22;53180;51.344;6.152;2022-08-20T00:26:33;20.50;89.80
33271;DHT22;53180;51.344;6.152;2022-08-20T00:29:02;20.40;89.90
33271;DHT22;53180;51.344;6.152;2022-08-20T00:31:32;20.40;90.10
33271;DHT22;53180;51.344;6.152;2022-08-20T00:34:00;20.40;90.30
33271;DHT22;53180;51.344;6.152;2022-08-20T00:36:29;20.30;90.50
33271;DHT22;53180;51.344;6.152;2022-08-20T00:38:59;20.20;90.70
33271;DHT22;53180;51.344;6.152;2022-08-20T00:41:28;20.30;90.90
33271;DHT22;53180;51.344;6.152;2022-08-20T00:44:06;20.30;90.80
33271;DHT22;53180;51.344;6.152;2022-08-20T00:46:39;20.30;90.80
33271;DHT22;53180;51.344;6.152;2022-08-20T00:49:13;20.30;90.80
33271;DHT22;53180;51.344;6.152;2022-08-20T00:51:46;20.20;90.60
33271;DHT22;53180;51.344;6.152;2022-08-20T00:54:19;20.20;90.80
33271;DHT22;53180;51.344;6.152;2022-08-20T00:56:54;20.30;90.70
33271;DHT22;53180;51.344;6.152;2022-08-20T00:59:27;20.20;90.60
33271;DHT22;53180;51.344;6.152;2022-08-20T01:02:00;20.30;90.70
33271;DHT22;53180;51.344;6.152;2022-08-20T01:04:32;20.30;90.70
33271;DHT22;53180;51.344;6.152;2022-08-20T01:07:04;20.30;90.70
33271;DHT22;53180;51.344;6.152;2022-08-20T01:09:35;20.30;90.80
33271;DHT22;53180;51.344;6.152;2022-08-20T01:12:26;20.30;90.80
33271;DHT22;53180;51.344;6.152;2022-08-20T01:14:56;20.30;90.70
33271;DHT22;53180;51.344;6.152;2022-08-20T01:17:31;20.30;90.70
33271;DHT22;53180;51.344;6.152;2022-08-20T01:20:06;20.20;90.70
33271;DHT22;53180;51.344;6.152;2022-08-20T01:22:41;20.20;90.60
33271;DHT22;53180;51.344;6.152;2022-08-20T01:25:39;20.20;90.50
33271;DHT22;53180;51.344;6.152;2022-08-20T01:28:10;20.20;90.60
33271;DHT22;53180;51.344;6.152;2022-08-20T01:30:41;20.20;90.60
33271;DHT22;53180;51.344;6.152;2022-08-20T01:33:09;20.20;90.40
33271;DHT22;53180;51.344;6.152;2022-08-20T01:35:40;20.20;90.50
33271;DHT22;53180;51.344;6.152;2022-08-20T01:38:09;20.20;90.50
33271;DHT22;53180;51.344;6.152;2022-08-20T01:40:51;20.20;90.60
33271;DHT22;53180;51.344;6.152;2022-08-20T01:43:45;20.20;90.50
33271;DHT22;53180;51.344;6.152;2022-08-20T01:46:16;20.20;90.50
33271;DHT22;53180;51.344;6.152;2022-08-20T01:48:45;20.20;90.40
33271;DHT22;53180;51.344;6.152;2022-08-20T01:51:16;20.20;90.40
33271;DHT22;53180;51.344;6.152;2022-08-20T01:53:49;20.10;90.60
33271;DHT22;53180;51.344;6.152;2022-08-20T01:56:23;20.10;90.50
33271;DHT22;53180;51.344;6.152;2022-08-20T01:58:54;20.10;90.50
33271;DHT22;53180;51.344;6.152;2022-08-20T02:01:27;20.10;90.60
33271;DHT22;53180;51.344;6.152;2022-08-20T02:04:08;20.10;90.60
33271;DHT22;53180;51.344;6.152;2022-08-20T02:06:43;20.10;90.80
33271;DHT22;53180;51.344;6.152;2022-08-20T02:09:23;20.10;90.90
33271;DHT22;53180;51.344;6.152;2022-08-20T02:11:54;20.10;90.70
33271;DHT22;53180;51.344;6.152;2022-08-20T02:14:24;20.10;90.80
33271;DHT22;53180;51.344;6.152;2022-08-20T02:16:53;20.10;90.40
33271;DHT22;53180;51.344;6.152;2022-08-20T02:19:27;20.10;90.50
33271;DHT22;53180;51.344;6.152;2022-08-20T02:21:58;20.10;90.40
33271;DHT22;53180;51.344;6.152;2022-08-20T02:24:29;20.10;90.50
33271;DHT22;53180;51.344;6.152;2022-08-20T02:26:59;20.10;90.30
33271;DHT22;53180;51.344;6.152;2022-08-20T02:29:27;20.10;90.50
33271;DHT22;53180;51.344;6.152;2022-08-20T02:31:55;20.00;90.50
33271;DHT22;53180;51.344;6.152;2022-08-20T02:34:44;20.00;90.50
33271;DHT22;53180;51.344;6.152;2022-08-20T02:37:12;19.90;90.60
33271;DHT22;53180;51.344;6.152;2022-08-20T02:39:44;20.00;90.80
33271;DHT22;53180;51.344;6.152;2022-08-20T02:42:14;20.00;91.00
33271;DHT22;53180;51.344;6.152;2022-08-20T02:44:42;20.00;90.80
33271;DHT22;53180;51.344;6.152;2022-08-20T02:47:10;20.00;90.80
33271;DHT22;53180;51.344;6.152;2022-08-20T02:49:39;19.90;90.90
33271;DHT22;53180;51.344;6.152;2022-08-20T02:52:07;20.00;91.00
33271;DHT22;53180;51.344;6.152;2022-08-20T02:54:35;20.00;91.00
33271;DHT22;53180;51.344;6.152;2022-08-20T02:57:04;20.00;90.80
33271;DHT22;53180;51.344;6.152;2022-08-20T02:59:40;19.90;90.80
33271;DHT22;53180;51.344;6.152;2022-08-20T03:02:09;20.00;90.80
33271;DHT22;53180;51.344;6.152;2022-08-20T03:04:37;19.90;90.90
33271;DHT22;53180;51.344;6.152;2022-08-20T03:07:06;19.90;91.00
33271;DHT22;53180;51.344;6.152;2022-08-20T03:09:36;20.00;90.80
33271;DHT22;53180;51.344;6.152;2022-08-20T03:12:05;19.90;90.90
33271;DHT22;53180;51.344;6.152;2022-08-20T03:14:34;20.00;91.10
33271;DHT22;53180;51.344;6.152;2022-08-20T03:17:04;20.00;91.00
33271;DHT22;53180;51.344;6.152;2022-08-20T03:19:32;20.00;90.90
33271;DHT22;53180;51.344;6.152;2022-08-20T03:22:00;20.00;90.80
33271;DHT22;53180;51.344;6.152;2022-08-20T03:24:29;19.90;91.10
33271;DHT22;53180;51.344;6.152;2022-08-20T03:26:57;20.00;91.10
33271;DHT22;53180;51.344;6.152;2022-08-20T03:29:25;20.00;91.10
33271;DHT22;53180;51.344;6.152;2022-08-20T03:31:53;20.00;90.80
33271;DHT22;53180;51.344;6.152;2022-08-20T03:34:23;20.00;90.90
33271;DHT22;53180;51.344;6.152;2022-08-20T03:36:51;20.00;91.20
33271;DHT22;53180;51.344;6.152;2022-08-20T03:39:19;20.00;91.20
33271;DHT22;53180;51.344;6.152;2022-08-20T03:41:48;20.00;91.30
33271;DHT22;53180;51.344;6.152;2022-08-20T03:44:16;20.00;91.20
33271;DHT22;53180;51.344;6.152;2022-08-20T03:46:44;20.00;91.10
33271;DHT22;53180;51.344;6.152;2022-08-20T03:49:13;20.00;91.40
33271;DHT22;53180;51.344;6.152;2022-08-20T03:51:43;20.00;91.20
33271;DHT22;53180;51.344;6.152;2022-08-20T03:54:24;20.00;91.30
33271;DHT22;53180;51.344;6.152;2022-08-20T03:56:58;20.00;91.20
33271;DHT22;53180;51.344;6.152;2022-08-20T03:59:29;20.00;91.20
33271;DHT22;53180;51.344;6.152;2022-08-20T04:01:59;20.00;91.10
33271;DHT22;53180;51.344;6.152;2022-08-20T04:04:27;20.00;91.00
33271;DHT22;53180;51.344;6.152;2022-08-20T04:06:57;20.00;90.90
33271;DHT22;53180;51.344;6.152;2022-08-20T04:09:25;19.90;90.90
33271;DHT22;53180;51.344;6.152;2022-08-20T04:11:54;19.90;90.70
33271;DHT22;53180;51.344;6.152;2022-08-20T04:14:25;19.90;90.90
33271;DHT22;53180;51.344;6.152;2022-08-20T04:16:55;19.90;90.80
33271;DHT22;53180;51.344;6.152;2022-08-20T04:19:24;19.80;90.80
33271;DHT22;53180;51.344;6.152;2022-08-20T04:21:57;19.90;90.80
33271;DHT22;53180;51.344;6.152;2022-08-20T04:24:25;19.80;90.80
33271;DHT22;53180;51.344;6.152;2022-08-20T04:26:58;19.80;90.70
33271;DHT22;53180;51.344;6.152;2022-08-20T04:29:28;19.80;90.70
33271;DHT22;53180;51.344;6.152;2022-08-20T04:31:58;19.80;90.70
33271;DHT22;53180;51.344;6.152;2022-08-20T04:34:31;19.80;90.50
33271;DHT22;53180;51.344;6.152;2022-08-20T04:37:02;19.80;90.50
33271;DHT22;53180;51.344;6.152;2022-08-20T04:39:31;19.70;90.60
33271;DHT22;53180;51.344;6.152;2022-08-20T04:41:59;19.70;90.60
33271;DHT22;53180;51.344;6.152;2022-08-20T04:44:26;19.70;90.50
33271;DHT22;53180;51.344;6.152;2022-08-20T04:46:55;19.70;90.30
33271;DHT22;53180;51.344;6.152;2022-08-20T04:49:23;19.70;90.40
33271;DHT22;53180;51.344;6.152;2022-08-20T04:51:52;19.70;90.30
33271;DHT22;53180;51.344;6.152;2022-08-20T04:54:22;19.70;90.40
33271;DHT22;53180;51.344;6.152;2022-08-20T04:56:50;19.70;90.50
33271;DHT22;53180;51.344;6.152;2022-08-20T04:59:19;19.70;90.60
33271;DHT22;53180;51.344;6.152;2022-08-20T05:01:47;19.70;90.70
33271;DHT22;53180;51.344;6.152;2022-08-20T05:04:15;19.70;90.80
33271;DHT22;53180;51.344;6.152;2022-08-20T05:06:43;19.70;90.70
33271;DHT22;53180;51.344;6.152;2022-08-20T05:09:12;19.60;90.50
33271;DHT22;53180;51.344;6.152;2022-08-20T05:11:41;19.50;90.20
33271;DHT22;53180;51.344;6.152;2022-08-20T05:14:09;19.50;90.20
33271;DHT22;53180;51.344;6.152;2022-08-20T05:16:39;19.40;90.00
33271;DHT22;53180;51.344;6.152;2022-08-20T05:19:11;19.30;89.90
33271;DHT22;53180;51.344;6.152;2022-08-20T05:21:40;19.30;89.80
33271;DHT22;53180;51.344;6.152;2022-08-20T05:24:08;19.30;90.00
33271;DHT22;53180;51.344;6.152;2022-08-20T05:26:37;19.30;90.00
33271;DHT22;53180;51.344;6.152;2022-08-20T05:29:07;19.30;90.00
33271;DHT22;53180;51.344;6.152;2022-08-20T05:31:35;19.20;90.10
33271;DHT22;53180;51.344;6.152;2022-08-20T05:34:06;19.20;90.00
33271;DHT22;53180;51.344;6.152;2022-08-20T05:36:38;19.20;90.10
33271;DHT22;53180;51.344;6.152;2022-08-20T05:39:08;19.10;90.00
33271;DHT22;53180;51.344;6.152;2022-08-20T05:41:37;19.10;90.00
33271;DHT22;53180;51.344;6.152;2022-08-20T05:44:09;19.00;90.00
33271;DHT22;53180;51.344;6.152;2022-08-20T05:46:40;19.00;90.10
33271;DHT22;53180;51.344;6.152;2022-08-20T05:49:12;19.00;90.00
33271;DHT22;53180;51.344;6.152;2022-08-20T05:51:42;19.00;89.90
33271;DHT22;53180;51.344;6.152;2022-08-20T05:54:11;19.00;90.10
33271;DHT22;53180;51.344;6.152;2022-08-20T05:56:40;19.00;90.20
33271;DHT22;53180;51.344;6.152;2022-08-20T05:59:10;19.00;90.20
33271;DHT22;53180;51.344;6.152;2022-08-20T06:01:40;19.00;90.30
33271;DHT22;53180;51.344;6.152;2022-08-20T06:04:09;19.00;90.30
33271;DHT22;53180;51.344;6.152;2022-08-20T06:06:54;19.00;90.30
33271;DHT22;53180;51.344;6.152;2022-08-20T06:09:24;19.00;90.30
33271;DHT22;53180;51.344;6.152;2022-08-20T06:11:58;19.10;90.50
33271;DHT22;53180;51.344;6.152;2022-08-20T06:14:29;19.10;90.40
33271;DHT22;53180;51.344;6.152;2022-08-20T06:17:03;19.20;90.30
33271;DHT22;53180;51.344;6.152;2022-08-20T06:19:32;19.20;90.20
33271;DHT22;53180;51.344;6.152;2022-08-20T06:22:02;19.30;90.10
33271;DHT22;53180;51.344;6.152;2022-08-20T06:24:46;19.20;90.00
33271;DHT22;53180;51.344;6.152;2022-08-20T06:27:15;19.30;90.30
33271;DHT22;53180;51.344;6.152;2022-08-20T06:29:45;19.30;90.40
33271;DHT22;53180;51.344;6.152;2022-08-20T06:32:13;19.20;90.50
33271;DHT22;53180;51.344;6.152;2022-08-20T06:34:42;19.20;90.50
33271;DHT22;53180;51.344;6.152;2022-08-20T06:37:18;19.20;90.40
33271;DHT22;53180;51.344;6.152;2022-08-20T06:39:48;19.20;90.20
33271;DHT22;53180;51.344;6.152;2022-08-20T06:42:20;19.10;90.10
33271;DHT22;53180;51.344;6.152;2022-08-20T06:44:49;19.10;90.00
33271;DHT22;53180;51.344;6.152;2022-08-20T06:47:19;19.10;89.70
33271;DHT22;53180;51.344;6.152;2022-08-20T06:49:48;19.00;89.60
33271;DHT22;53180;51.344;6.152;2022-08-20T06:52:16;19.00;89.40
33271;DHT22;53180;51.344;6.152;2022-08-20T06:54:45;19.00;89.30
33271;DHT22;53180;51.344;6.152;2022-08-20T06:57:13;19.00;89.30
33271;DHT22;53180;51.344;6.152;2022-08-20T06:59:42;19.00;89.70
33271;DHT22;53180;51.344;6.152;2022-08-20T07:02:21;19.00;89.40
33271;DHT22;53180;51.344;6.152;2022-08-20T07:04:56;19.00;89.20
33271;DHT22;53180;51.344;6.152;2022-08-20T07:07:24;19.00;89.10
33271;DHT22;53180;51.344;6.152;2022-08-20T07:09:58;19.00;89.00
33271;DHT22;53180;51.344;6.152;2022-08-20T07:12:27;18.90;89.00
33271;DHT22;53180;51.344;6.152;2022-08-20T07:14:55;19.00;89.40
33271;DHT22;53180;51.344;6.152;2022-08-20T07:17:25;19.00;89.30
33271;DHT22;53180;51.344;6.152;2022-08-20T07:19:53;19.00;89.10
33271;DHT22;53180;51.344;6.152;2022-08-20T07:22:21;19.00;89.30
33271;DHT22;53180;51.344;6.152;2022-08-20T07:24:50;19.00;89.00
33271;DHT22;53180;51.344;6.152;2022-08-20T07:27:22;19.00;89.10
33271;DHT22;53180;51.344;6.152;2022-08-20T07:29:50;19.00;88.90
33271;DHT22;53180;51.344;6.152;2022-08-20T07:32:42;19.10;88.90
33271;DHT22;53180;51.344;6.152;2022-08-20T07:35:15;19.10;88.80
33271;DHT22;53180;51.344;6.152;2022-08-20T07:37:45;19.10;88.70
33271;DHT22;53180;51.344;6.152;2022-08-20T07:40:18;19.10;88.50
33271;DHT22;53180;51.344;6.152;2022-08-20T07:42:52;19.10;88.40
33271;DHT22;53180;51.344;6.152;2022-08-20T07:45:21;19.10;88.30
33271;DHT22;53180;51.344;6.152;2022-08-20T07:47:51;19.10;88.40
33271;DHT22;53180;51.344;6.152;2022-08-20T07:50:21;19.20;88.50
33271;DHT22;53180;51.344;6.152;2022-08-20T07:52:51;19.20;88.50
33271;DHT22;53180;51.344;6.152;2022-08-20T07:55:20;19.10;88.30
33271;DHT22;53180;51.344;6.152;2022-08-20T07:57:49;19.10;88.20
33271;DHT22;53180;51.344;6.152;2022-08-20T08:00:20;19.10;88.30
33271;DHT22;53180;51.344;6.152;2022-08-20T08:02:51;19.10;88.20
33271;DHT22;53180;51.344;6.152;2022-08-20T08:05:19;19.10;88.40
33271;DHT22;53180;51.344;6.152;2022-08-20T08:07:48;19.10;88.50
33271;DHT22;53180;51.344;6.152;2022-08-20T08:10:19;19.00;88.30
33271;DHT22;53180;51.344;6.152;2022-08-20T08:12:51;19.00;88.60
33271;DHT22;53180;51.344;6.152;2022-08-20T08:15:25;19.00;88.40
33271;DHT22;53180;51.344;6.152;2022-08-20T08:18:04;19.00;88.50
33271;DHT22;53180;51.344;6.152;2022-08-20T08:20:35;19.10;88.40
33271;DHT22;53180;51.344;6.152;2022-08-20T08:23:13;19.00;88.40
33271;DHT22;53180;51.344;6.152;2022-08-20T08:25:57;19.00;88.30
33271;DHT22;53180;51.344;6.152;2022-08-20T08:28:26;19.10;88.30
33271;DHT22;53180;51.344;6.152;2022-08-20T08:30:55;19.10;88.50
33271;DHT22;53180;51.344;6.152;2022-08-20T08:33:28;19.10;88.50
33271;DHT22;53180;51.344;6.152;2022-08-20T08:36:00;19.20;88.40
33271;DHT22;53180;51.344;6.152;2022-08-20T08:38:31;19.20;88.50
33271;DHT22;53180;51.344;6.152;2022-08-20T08:41:06;19.30;88.20
33271;DHT22;53180;51.344;6.152;2022-08-20T08:43:39;19.30;87.90
33271;DHT22;53180;51.344;6.152;2022-08-20T08:46:10;19.30;88.10
33271;DHT22;53180;51.344;6.152;2022-08-20T08:48:42;19.30;88.00
33271;DHT22;53180;51.344;6.152;2022-08-20T08:51:15;19.40;88.00
33271;DHT22;53180;51.344;6.152;2022-08-20T08:53:49;19.40;87.80
33271;DHT22;53180;51.344;6.152;2022-08-20T08:56:23;19.50;87.90
33271;DHT22;53180;51.344;6.152;2022-08-20T08:58:56;19.50;87.70
33271;DHT22;53180;51.344;6.152;2022-08-20T09:01:26;19.50;87.80
33271;DHT22;53180;51.344;6.152;2022-08-20T09:04:18;19.60;87.50
33271;DHT22;53180;51.344;6.152;2022-08-20T09:06:49;19.70;87.70
33271;DHT22;53180;51.344;6.152;2022-08-20T09:09:21;19.70;87.70
33271;DHT22;53180;51.344;6.152;2022-08-20T09:11:53;19.70;87.50
33271;DHT22;53180;51.344;6.152;2022-08-20T09:14:23;19.70;87.40
33271;DHT22;53180;51.344;6.152;2022-08-20T09:16:52;19.70;86.80
33271;DHT22;53180;51.344;6.152;2022-08-20T09:19:21;19.70;87.00
33271;DHT22;53180;51.344;6.152;2022-08-20T09:21:49;19.70;87.10
33271;DHT22;53180;51.344;6.152;2022-08-20T09:24:18;19.70;87.10
33271;DHT22;53180;51.344;6.152;2022-08-20T09:26:46;19.70;87.60
33271;DHT22;53180;51.344;6.152;2022-08-20T09:29:14;19.70;86.90
33271;DHT22;53180;51.344;6.152;2022-08-20T09:31:42;19.70;86.80
33271;DHT22;53180;51.344;6.152;2022-08-20T09:34:12;19.60;86.50
33271;DHT22;53180;51.344;6.152;2022-08-20T09:36:42;19.60;87.00
33271;DHT22;53180;51.344;6.152;2022-08-20T09:39:10;19.60;87.20
33271;DHT22;53180;51.344;6.152;2022-08-20T09:41:38;19.50;87.00
33271;DHT22;53180;51.344;6.152;2022-08-20T09:44:07;19.60;87.00
33271;DHT22;53180;51.344;6.152;2022-08-20T09:46:35;19.60;87.10
33271;DHT22;53180;51.344;6.152;2022-08-20T09:49:03;19.60;87.10
33271;DHT22;53180;51.344;6.152;2022-08-20T09:51:34;19.60;87.20
33271;DHT22;53180;51.344;6.152;2022-08-20T09:54:05;19.60;87.10
33271;DHT22;53180;51.344;6.152;2022-08-20T09:56:34;19.70;87.00
33271;DHT22;53180;51.344;6.152;2022-08-20T09:59:02;19.70;86.80
33271;DHT22;53180;51.344;6.152;2022-08-20T10:01:31;19.70;87.00
33271;DHT22;53180;51.344;6.152;2022-08-20T10:03:59;19.70;87.10
33271;DHT22;53180;51.344;6.152;2022-08-20T10:06:28;19.70;86.70
33271;DHT22;53180;51.344;6.152;2022-08-20T10:09:03;19.80;86.80
33271;DHT22;53180;51.344;6.152;2022-08-20T10:11:32;19.90;86.70
33271;DHT22;53180;51.344;6.152;2022-08-20T10:14:01;20.10;86.80
33271;DHT22;53180;51.344;6.152;2022-08-20T10:16:29;20.30;86.30
33271;DHT22;53180;51.344;6.152;2022-08-20T10:18:57;20.50;85.70
33271;DHT22;53180;51.344;6.152;2022-08-20T10:21:26;20.70;85.30
33271;DHT22;53180;51.344;6.152;2022-08-20T10:23:54;20.80;84.70
33271;DHT22;53180;51.344;6.152;2022-08-20T10:26:24;21.00;84.10
33271;DHT22;53180;51.344;6.152;2022-08-20T10:28:53;21.10;83.80
33271;DHT22;53180;51.344;6.152;2022-08-20T10:31:21;21.20;83.10
33271;DHT22;53180;51.344;6.152;2022-08-20T10:33:49;21.10;83.00
33271;DHT22;53180;51.344;6.152;2022-08-20T10:36:18;21.30;83.60
33271;DHT22;53180;51.344;6.152;2022-08-20T10:38:46;21.70;82.40
33271;DHT22;53180;51.344;6.152;2022-08-20T10:41:15;22.10;80.80
33271;DHT22;53180;51.344;6.152;2022-08-20T10:43:44;22.30;80.10
33271;DHT22;53180;51.344;6.152;2022-08-20T10:46:13;22.60;78.40
33271;DHT22;53180;51.344;6.152;2022-08-20T10:48:42;22.80;77.50
33271;DHT22;53180;51.344;6.152;2022-08-20T10:51:10;22.90;77.50
33271;DHT22;53180;51.344;6.152;2022-08-20T10:53:38;23.20;76.10
33271;DHT22;53180;51.344;6.152;2022-08-20T10:56:07;23.30;75.90
33271;DHT22;53180;51.344;6.152;2022-08-20T10:58:41;23.50;72.40
33271;DHT22;53180;51.344;6.152;2022-08-20T11:01:11;23.70;71.80
33271;DHT22;53180;51.344;6.152;2022-08-20T11:03:58;24.00;71.10
33271;DHT22;53180;51.344;6.152;2022-08-20T11:06:27;24.30;69.70
33271;DHT22;53180;51.344;6.152;2022-08-20T11:08:55;24.30;67.70
33271;DHT22;53180;51.344;6.152;2022-08-20T11:11:23;24.20;68.50
33271;DHT22;53180;51.344;6.152;2022-08-20T11:13:51;24.30;69.70
33271;DHT22;53180;51.344;6.152;2022-08-20T11:16:21;24.70;66.00
33271;DHT22;53180;51.344;6.152;2022-08-20T11:18:49;24.80;65.90
33271;DHT22;53180;51.344;6.152;2022-08-20T11:21:17;24.80;65.60
33271;DHT22;53180;51.344;6.152;2022-08-20T11:23:46;24.80;65.00
33271;DHT22;53180;51.344;6.152;2022-08-20T11:26:20;24.60;65.60
33271;DHT22;53180;51.344;6.152;2022-08-20T11:28:49;24.80;65.60
33271;DHT22;53180;51.344;6.152;2022-08-20T11:31:18;24.90;65.20
33271;DHT22;53180;51.344;6.152;2022-08-20T11:33:47;24.90;65.20
33271;DHT22;53180;51.344;6.152;2022-08-20T11:36:16;25.00;65.50
33271;DHT22;53180;51.344;6.152;2022-08-20T11:38:44;25.30;63.70
33271;DHT22;53180;51.344;6.152;2022-08-20T11:41:13;25.50;63.80
33271;DHT22;53180;51.344;6.152;2022-08-20T11:43:44;25.60;61.60
33271;DHT22;53180;51.344;6.152;2022-08-20T11:46:32;25.50;62.20
33271;DHT22;53180;51.344;6.152;2022-08-20T11:49:02;25.80;60.00
33271;DHT22;53180;51.344;6.152;2022-08-20T11:51:31;25.90;58.40
33271;DHT22;53180;51.344;6.152;2022-08-20T11:54:16;26.10;59.60
33271;DHT22;53180;51.344;6.152;2022-08-20T11:56:45;26.30;58.80
33271;DHT22;53180;51.344;6.152;2022-08-20T11:59:13;26.40;58.30
33271;DHT22;53180;51.344;6.152;2022-08-20T12:01:42;26.40;59.50
33271;DHT22;53180;51.344;6.152;2022-08-20T12:04:29;26.30;56.80
33271;DHT22;53180;51.344;6.152;2022-08-20T12:07:07;26.40;56.00
33271;DHT22;53180;51.344;6.152;2022-08-20T12:09:37;26.50;57.00
33271;DHT22;53180;51.344;6.152;2022-08-20T12:12:16;26.70;57.50
33271;DHT22;53180;51.344;6.152;2022-08-20T12:14:45;26.70;55.50
33271;DHT22;53180;51.344;6.152;2022-08-20T12:17:15;26.60;57.50
33271;DHT22;53180;51.344;6.152;2022-08-20T12:19:46;26.60;55.60
33271;DHT22;53180;51.344;6.152;2022-08-20T12:22:15;26.30;56.90
33271;DHT22;53180;51.344;6.152;2022-08-20T12:24:51;26.00;56.40
33271;DHT22;53180;51.344;6.152;2022-08-20T12:27:22;25.80;57.10
33271;DHT22;53180;51.344;6.152;2022-08-20T12:29:53;25.80;57.40
33271;DHT22;53180;51.344;6.152;2022-08-20T12:32:24;25.60;58.00
33271;DHT22;53180;51.344;6.152;2022-08-20T12:34:56;25.50;57.10
33271;DHT22;53180;51.344;6.152;2022-08-20T12:37:26;25.30;57.60
33271;DHT22;53180;51.344;6.152;2022-08-20T12:39:57;25.40;58.40
33271;DHT22;53180;51.344;6.152;2022-08-20T12:42:28;25.50;58.50
33271;DHT22;53180;51.344;6.152;2022-08-20T12:44:57;25.70;56.60
33271;DHT22;53180;51.344;6.152;2022-08-20T12:47:28;25.60;56.50
33271;DHT22;53180;51.344;6.152;2022-08-20T12:50:02;25.70;56.30
33271;DHT22;53180;51.344;6.152;2022-08-20T12:52:32;25.80;57.10
33271;DHT22;53180;51.344;6.152;2022-08-20T12:55:01;26.00;56.30
33271;DHT22;53180;51.344;6.152;2022-08-20T12:57:33;26.20;57.40
33271;DHT22;53180;51.344;6.152;2022-08-20T13:00:05;26.20;57.00
33271;DHT22;53180;51.344;6.152;2022-08-20T13:02:36;26.00;56.70
33271;DHT22;53180;51.344;6.152;2022-08-20T13:05:08;26.10;56.10
33271;DHT22;53180;51.344;6.152;2022-08-20T13:07:39;26.30;55.00
33271;DHT22;53180;51.344;6.152;2022-08-20T13:10:10;26.50;53.90
33271;DHT22;53180;51.344;6.152;2022-08-20T13:12:40;26.50;51.90
33271;DHT22;53180;51.344;6.152;2022-08-20T13:15:09;26.20;51.40
33271;DHT22;53180;51.344;6.152;2022-08-20T13:17:38;26.10;53.40
33271;DHT22;53180;51.344;6.152;2022-08-20T13:20:11;26.20;53.30
33271;DHT22;53180;51.344;6.152;2022-08-20T13:22:42;26.30;50.10
33271;DHT22;53180;51.344;6.152;2022-08-20T13:25:11;26.30;49.00
33271;DHT22;53180;51.344;6.152;2022-08-20T13:27:41;26.40;48.70
33271;DHT22;53180;51.344;6.152;2022-08-20T13:30:13;26.30;50.70
33271;DHT22;53180;51.344;6.152;2022-08-20T13:32:43;26.30;51.00
33271;DHT22;53180;51.344;6.152;2022-08-20T13:35:13;26.40;49.20
33271;DHT22;53180;51.344;6.152;2022-08-20T13:37:41;26.40;51.00
33271;DHT22;53180;51.344;6.152;2022-08-20T13:40:10;26.40;48.80
33271;DHT22;53180;51.344;6.152;2022-08-20T13:42:39;26.40;50.20
33271;DHT22;53180;51.344;6.152;2022-08-20T13:45:08;26.60;50.00
33271;DHT22;53180;51.344;6.152;2022-08-20T13:47:38;26.70;49.40
33271;DHT22;53180;51.344;6.152;2022-08-20T13:50:09;26.80;50.30
33271;DHT22;53180;51.344;6.152;2022-08-20T13:52:41;26.90;50.10
33271;DHT22;53180;51.344;6.152;2022-08-20T13:55:13;27.00;51.20
33271;DHT22;53180;51.344;6.152;2022-08-20T13:57:43;26.90;48.70
33271;DHT22;53180;51.344;6.152;2022-08-20T14:00:16;26.60;50.70
33271;DHT22;53180;51.344;6.152;2022-08-20T14:02:56;26.40;51.40
33271;DHT22;53180;51.344;6.152;2022-08-20T14:05:26;26.40;51.60
33271;DHT22;53180;51.344;6.152;2022-08-20T14:07:59;26.40;50.30
33271;DHT22;53180;51.344;6.152;2022-08-20T14:10:31;26.40;49.60
33271;DHT22;53180;51.344;6.152;2022-08-20T14:13:00;26.20;48.70
33271;DHT22;53180;51.344;6.152;2022-08-20T14:15:29;26.10;48.80
33271;DHT22;53180;51.344;6.152;2022-08-20T14:17:57;25.90;50.00
33271;DHT22;53180;51.344;6.152;2022-08-20T14:20:29;25.80;48.90
33271;DHT22;53180;51.344;6.152;2022-08-20T14:23:00;25.70;49.60
33271;DHT22;53180;51.344;6.152;2022-08-20T14:25:30;25.60;49.00
33271;DHT22;53180;51.344;6.152;2022-08-20T14:28:08;25.50;50.70
33271;DHT22;53180;51.344;6.152;2022-08-20T14:30:38;25.40;50.70
33271;DHT22;53180;51.344;6.152;2022-08-20T14:33:06;25.40;50.30
33271;DHT22;53180;51.344;6.152;2022-08-20T14:35:36;25.40;50.60
33271;DHT22;53180;51.344;6.152;2022-08-20T14:38:06;25.50;49.20
33271;DHT22;53180;51.344;6.152;2022-08-20T14:40:35;25.40;48.90
33271;DHT22;53180;51.344;6.152;2022-08-20T14:43:03;25.30;49.00
33271;DHT22;53180;51.344;6.152;2022-08-20T14:45:31;25.10;49.90
33271;DHT22;53180;51.344;6.152;2022-08-20T14:48:00;25.00;50.90
33271;DHT22;53180;51.344;6.152;2022-08-20T14:50:30;25.00;50.40
33271;DHT22;53180;51.344;6.152;2022-08-20T14:53:01;25.00;50.50
33271;DHT22;53180;51.344;6.152;2022-08-20T14:55:32;25.20;50.00
33271;DHT22;53180;51.344;6.152;2022-08-20T14:58:06;25.10;49.20
33271;DHT22;53180;51.344;6.152;2022-08-20T15:00:35;25.20;48.20
33271;DHT22;53180;51.344;6.152;2022-08-20T15:03:04;25.10;50.50
33271;DHT22;53180;51.344;6.152;2022-08-20T15:05:33;25.10;49.90
33271;DHT22;53180;51.344;6.152;2022-08-20T15:08:07;25.00;49.80
33271;DHT22;53180;51.344;6.152;2022-08-20T15:10:37;25.10;51.40
33271;DHT22;53180;51.344;6.152;2022-08-20T15:13:06;25.10;49.80
33271;DHT22;53180;51.344;6.152;2022-08-20T15:15:34;25.10;51.50
33271;DHT22;53180;51.344;6.152;2022-08-20T15:18:02;25.10;50.30
33271;DHT22;53180;51.344;6.152;2022-08-20T15:20:33;25.10;50.00
33271;DHT22;53180;51.344;6.152;2022-08-20T15:23:03;25.10;50.20
33271;DHT22;53180;51.344;6.152;2022-08-20T15:25:34;25.00;50.80
33271;DHT22;53180;51.344;6.152;2022-08-20T15:28:05;25.00;49.80
33271;DHT22;53180;51.344;6.152;2022-08-20T15:30:36;24.90;52.00
33271;DHT22;53180;51.344;6.152;2022-08-20T15:33:05;25.00;50.60
33271;DHT22;53180;51.344;6.152;2022-08-20T15:35:33;24.90;49.20
33271;DHT22;53180;51.344;6.152;2022-08-20T15:38:02;25.00;50.20
33271;DHT22;53180;51.344;6.152;2022-08-20T15:40:32;25.00;51.60
33271;DHT22;53180;51.344;6.152;2022-08-20T15:43:02;25.00;50.80
33271;DHT22;53180;51.344;6.152;2022-08-20T15:45:32;25.00;48.60
33271;DHT22;53180;51.344;6.152;2022-08-20T15:48:08;25.00;47.70
33271;DHT22;53180;51.344;6.152;2022-08-20T15:53:53;24.90;47.70
33271;DHT22;53180;51.344;6.152;2022-08-20T15:56:39;24.90;48.70